Time;durP1;ratioP1;P1;durP2;ratioP2;P2;SDS_P1;SDS_P2;PMS_P1;PMS_P2;Temp;Humidity;BMP_temperature;BMP_pressure;BME280_temperature;BME280_humidity;BME280_pressure;Samples;Min_cycle;Max_cycle;Signal;HPM_P1;HPM_P2
2022/02/20 00:01:47;;;;;;;5.25;0.95;;;8.90;99.90;;;;;;4992409;28;20181;-80
2022/02/20 00:04:13;;;;;;;4.80;1.33;;;8.90;99.90;;;;;;4986859;28;20194;-77
2022/02/20 00:06:39;;;;;;;6.57;1.42;;;8.80;99.90;;;;;;4976192;28;20785;-84
2022/02/20 00:09:05;;;;;;;7.85;1.58;;;8.80;99.90;;;;;;4975561;28;20176;-77
2022/02/20 00:11:30;;;;;;;6.28;1.92;;;8.80;99.90;;;;;;4976065;28;20173;-81
2022/02/20 00:13:56;;;;;;;4.60;1.52;;;8.70;99.90;;;;;;4975798;28;20190;-77
2022/02/20 00:16:23;;;;;;;6.00;1.50;;;8.70;99.90;;;;;;4975789;28;20174;-78
2022/02/20 00:18:49;;;;;;;11.38;1.85;;;8.60;99.90;;;;;;4975689;28;20649;-79
2022/02/20 00:21:15;;;;;;;6.10;1.45;;;8.60;99.90;;;;;;4975901;28;20170;-77
2022/02/20 00:23:40;;;;;;;8.77;1.63;;;8.60;99.90;;;;;;4975451;28;20190;-77
2022/02/20 00:26:06;;;;;;;5.65;1.35;;;8.60;99.90;;;;;;4975508;28;20217;-78
2022/02/20 00:28:32;;;;;;;8.68;1.80;;;8.50;99.90;;;;;;4975728;28;20538;-77
2022/02/20 00:30:57;;;;;;;4.93;1.40;;;8.50;99.90;;;;;;4958401;28;20264;-77
2022/02/20 00:33:23;;;;;;;14.68;2.25;;;8.60;99.90;;;;;;4978091;28;20173;-78
2022/02/20 00:35:49;;;;;;;5.28;1.67;;;8.60;99.90;;;;;;4979516;28;20165;-78
2022/02/20 00:38:15;;;;;;;7.82;2.05;;;8.70;99.90;;;;;;4980086;28;20225;-77
2022/02/20 00:40:41;;;;;;;4.75;1.35;;;8.60;99.90;;;;;;4978163;28;20174;-77
2022/02/20 00:43:07;;;;;;;10.82;1.33;;;8.60;99.90;;;;;;4960560;28;20185;-76
2022/02/20 00:45:33;;;;;;;4.35;1.25;;;8.70;99.90;;;;;;4982671;28;20209;-77
2022/02/20 00:47:58;;;;;;;6.15;1.40;;;8.70;99.90;;;;;;4977296;28;20170;-80
2022/02/20 00:50:26;;;;;;;4.65;1.17;;;8.70;99.90;;;;;;4983320;28;20198;-79
2022/02/20 00:52:52;;;;;;;5.97;1.25;;;8.70;99.90;;;;;;4970722;28;20174;-82
2022/02/20 00:55:18;;;;;;;6.03;1.52;;;8.60;99.90;;;;;;4985276;28;20229;-78
2022/02/20 00:57:43;;;;;;;7.32;1.08;;;8.50;99.90;;;;;;4980170;28;20170;-77
2022/02/20 01:00:11;;;;;;;4.22;1.55;;;8.50;99.90;;;;;;4978949;28;20170;-81
2022/02/20 01:02:37;;;;;;;8.10;1.13;;;8.30;99.90;;;;;;4978067;28;20193;-78
2022/02/20 01:05:04;;;;;;;5.50;1.20;;;8.30;99.90;;;;;;4978203;28;20554;-78
2022/02/20 01:07:30;;;;;;;9.88;2.00;;;8.20;99.90;;;;;;4981545;28;20208;-80
2022/02/20 01:09:58;;;;;;;9.07;1.45;;;8.30;99.90;;;;;;4962295;28;20524;-83
2022/02/20 01:12:26;;;;;;;4.97;1.13;;;8.40;99.90;;;;;;4983372;28;20201;-83
2022/02/20 01:14:52;;;;;;;4.43;1.20;;;8.20;99.90;;;;;;4979929;28;20190;-84
2022/02/20 01:17:18;;;;;;;3.50;1.30;;;8.30;99.90;;;;;;4958421;28;20181;-83
2022/02/20 01:19:43;;;;;;;3.80;1.13;;;8.30;99.90;;;;;;4957784;28;20524;-76
2022/02/20 01:22:09;;;;;;;9.48;1.70;;;8.30;99.90;;;;;;4977620;28;20237;-77
2022/02/20 01:24:35;;;;;;;3.83;0.98;;;8.10;99.90;;;;;;4977703;28;20554;-78
2022/02/20 01:27:01;;;;;;;7.90;1.58;;;8.00;99.90;;;;;;4976142;28;20174;-84
2022/02/20 01:29:27;;;;;;;4.57;1.42;;;8.00;99.90;;;;;;4980125;28;20583;-77
2022/02/20 01:31:54;;;;;;;8.98;1.70;;;8.00;99.90;;;;;;4977111;28;20173;-82
2022/02/20 01:34:21;;;;;;;7.90;1.23;;;8.10;99.90;;;;;;4982917;28;20664;-77
2022/02/20 01:36:47;;;;;;;6.13;1.00;;;8.10;99.90;;;;;;4965923;28;20174;-78
2022/02/20 01:39:13;;;;;;;2.58;0.82;;;8.10;99.90;;;;;;4962842;28;20186;-78
2022/02/20 01:41:38;;;;;;;6.03;0.95;;;8.10;99.90;;;;;;4977618;28;20210;-81
2022/02/20 01:44:06;;;;;;;6.93;1.25;;;8.00;99.90;;;;;;4960088;28;20277;-84
2022/02/20 01:46:33;;;;;;;4.70;1.15;;;8.00;99.90;;;;;;4976969;28;20216;-86
2022/02/20 01:48:58;;;;;;;5.47;1.13;;;8.00;99.90;;;;;;4976629;28;20310;-78
2022/02/20 01:51:24;;;;;;;2.60;1.80;;;7.90;99.90;;;;;;4977283;28;20194;-81
2022/02/20 01:53:50;;;;;;;5.90;1.35;;;8.00;99.90;;;;;;4979757;28;20209;-78
2022/02/20 01:56:17;;;;;;;3.05;1.10;;;8.20;99.90;;;;;;4978698;28;20167;-77
2022/02/20 01:58:42;;;;;;;7.00;1.60;;;8.30;99.90;;;;;;4979179;28;20204;-77
2022/02/20 02:01:08;;;;;;;6.68;2.05;;;8.30;99.90;;;;;;4978271;28;20173;-77
2022/02/20 02:03:38;;;;;;;7.25;1.48;;;8.60;99.90;;;;;;4977363;28;20174;-81
2022/02/20 02:06:04;;;;;;;7.68;1.50;;;8.60;99.90;;;;;;4976302;28;20213;-77
2022/02/20 02:08:29;;;;;;;6.95;1.05;;;8.40;99.90;;;;;;4977599;28;20177;-79
2022/02/20 02:10:55;;;;;;;6.50;0.93;;;8.50;99.90;;;;;;4978868;28;20166;-78
2022/02/20 02:13:21;;;;;;;5.78;1.60;;;8.60;99.90;;;;;;4979880;28;20179;-78
2022/02/20 02:15:51;;;;;;;12.02;1.77;;;8.80;99.90;;;;;;4980410;28;20619;-81
2022/02/20 02:18:18;;;;;;;9.35;1.40;;;9.00;99.90;;;;;;4980078;28;20255;-78
2022/02/20 02:20:43;;;;;;;10.02;1.85;;;8.90;99.90;;;;;;4980887;28;20244;-77
2022/02/20 02:23:10;;;;;;;11.45;1.67;;;9.10;99.90;;;;;;4984891;28;20616;-77
2022/02/20 02:25:38;;;;;;;8.80;1.80;;;9.10;99.90;;;;;;4979557;28;20811;-77
2022/02/20 02:28:04;;;;;;;5.70;1.65;;;9.30;99.90;;;;;;4980026;28;20166;-87
2022/02/20 02:30:30;;;;;;;6.45;1.40;;;9.20;99.90;;;;;;4982459;28;20260;-77
2022/02/20 02:32:55;;;;;;;5.15;1.92;;;9.30;99.90;;;;;;4983454;28;20619;-77
2022/02/20 02:35:21;;;;;;;18.90;1.98;;;9.30;99.90;;;;;;4988525;28;20197;-78
2022/02/20 02:37:48;;;;;;;8.20;1.80;;;9.40;99.90;;;;;;4999483;28;20166;-79
2022/02/20 02:40:13;;;;;;;14.95;3.13;;;9.30;99.90;;;;;;4985265;28;20588;-78
2022/02/20 02:42:40;;;;;;;10.45;2.20;;;9.50;99.90;;;;;;4979245;28;20170;-77
2022/02/20 02:45:07;;;;;;;4.75;2.38;;;9.50;99.90;;;;;;4977255;28;20198;-83
2022/02/20 02:47:33;;;;;;;12.43;2.78;;;9.60;99.90;;;;;;4976956;28;20201;-77
2022/02/20 02:49:58;;;;;;;14.15;3.50;;;9.50;99.90;;;;;;4977336;28;20194;-78
2022/02/20 02:52:24;;;;;;;10.75;2.20;;;9.10;99.90;;;;;;4977317;28;20641;-77
2022/02/20 02:54:50;;;;;;;21.05;3.35;;;9.20;99.90;;;;;;4959790;28;20201;-87
2022/02/20 02:57:15;;;;;;;31.92;4.15;;;9.30;99.90;;;;;;4977145;28;20209;-78
2022/02/20 02:59:41;;;;;;;17.75;2.55;;;9.30;99.90;;;;;;4976885;28;20165;-77
2022/02/20 03:02:08;;;;;;;11.85;2.55;;;9.30;99.90;;;;;;4977431;28;20258;-78
2022/02/20 03:04:34;;;;;;;18.85;3.20;;;9.20;99.90;;;;;;4977229;28;20230;-83
2022/02/20 03:07:00;;;;;;;11.57;3.22;;;9.20;99.90;;;;;;4976918;28;20237;-78
2022/02/20 03:09:26;;;;;;;19.45;3.72;;;9.10;99.90;;;;;;4975690;28;20174;-78
2022/02/20 03:11:52;;;;;;;32.13;3.65;;;9.10;99.90;;;;;;4977298;28;20257;-80
2022/02/20 03:14:18;;;;;;;21.02;4.03;;;9.10;99.90;;;;;;4976740;28;20197;-84
2022/02/20 03:16:43;;;;;;;27.80;3.97;;;8.90;99.90;;;;;;4976519;28;20173;-79
2022/02/20 03:19:09;;;;;;;9.25;2.45;;;8.70;99.90;;;;;;4976758;28;20627;-78
2022/02/20 03:21:35;;;;;;;26.45;3.95;;;8.60;99.90;;;;;;4976311;28;20253;-78
2022/02/20 03:24:01;;;;;;;16.65;3.42;;;8.70;99.90;;;;;;4976323;28;20204;-77
2022/02/20 03:26:26;;;;;;;27.85;4.03;;;8.70;99.90;;;;;;4976561;28;20212;-78
2022/02/20 03:28:52;;;;;;;22.65;4.40;;;8.80;99.90;;;;;;4976463;28;20197;-78
2022/02/20 03:31:18;;;;;;;28.15;3.20;;;8.80;99.90;;;;;;4976425;28;20188;-77
2022/02/20 03:33:43;;;;;;;27.15;3.92;;;8.90;99.90;;;;;;4976567;28;20599;-78
2022/02/20 03:36:09;;;;;;;35.97;3.80;;;8.70;99.90;;;;;;4976417;28;20198;-78
2022/02/20 03:38:35;;;;;;;33.58;4.15;;;8.60;99.90;;;;;;4959190;28;20173;-79
2022/02/20 03:41:02;;;;;;;23.70;4.22;;;8.60;99.90;;;;;;4976480;28;20642;-77
2022/02/20 03:43:27;;;;;;;33.08;3.60;;;8.60;99.90;;;;;;4976181;28;20190;-77
2022/02/20 03:45:53;;;;;;;36.03;4.38;;;8.70;99.90;;;;;;4974995;28;20677;-78
2022/02/20 03:48:19;;;;;;;22.17;3.15;;;8.60;99.90;;;;;;4976396;28;20171;-80
2022/02/20 03:50:44;;;;;;;34.97;4.05;;;8.60;99.90;;;;;;4976601;28;20220;-77
2022/02/20 03:53:10;;;;;;;29.50;4.13;;;8.60;99.90;;;;;;4976694;28;20209;-76
2022/02/20 03:55:35;;;;;;;25.75;4.15;;;8.70;99.90;;;;;;4976411;28;20634;-77
2022/02/20 03:58:01;;;;;;;25.77;4.20;;;8.70;99.90;;;;;;4976482;28;20182;-81
2022/02/20 04:00:27;;;;;;;44.33;4.85;;;8.80;99.90;;;;;;4976182;28;20177;-77
2022/02/20 04:02:53;;;;;;;29.25;3.70;;;8.80;99.90;;;;;;4976300;28;20198;-81
2022/02/20 04:05:20;;;;;;;29.30;3.55;;;8.80;99.90;;;;;;4976244;28;20249;-76
2022/02/20 04:07:46;;;;;;;31.00;4.13;;;8.80;99.90;;;;;;4975870;28;20167;-77
2022/02/20 04:10:13;;;;;;;21.23;4.30;;;8.80;99.90;;;;;;4975620;28;20178;-76
2022/02/20 04:12:39;;;;;;;26.55;4.63;;;8.70;99.90;;;;;;4976018;28;20184;-77
2022/02/20 04:15:10;;;;;;;35.53;4.13;;;8.70;99.90;;;;;;4976070;28;20190;-81
2022/02/20 04:17:40;;;;;;;23.65;4.20;;;8.80;99.90;;;;;;4975790;28;20188;-76
2022/02/20 04:20:07;;;;;;;23.92;4.03;;;8.80;99.90;;;;;;4957889;28;20573;-85
2022/02/20 04:22:33;;;;;;;13.73;3.45;;;8.80;99.90;;;;;;4975542;28;20166;-79
2022/02/20 04:24:59;;;;;;;20.83;5.07;;;8.70;99.90;;;;;;4958479;28;20197;-84
2022/02/20 04:27:25;;;;;;;27.88;3.78;;;8.90;99.90;;;;;;4975179;28;20185;-77
2022/02/20 04:29:50;;;;;;;20.77;3.40;;;8.90;99.90;;;;;;4974668;28;20193;-77
2022/02/20 04:32:16;;;;;;;25.83;3.95;;;8.90;99.90;;;;;;4975782;28;20177;-76
2022/02/20 04:34:42;;;;;;;24.63;3.92;;;8.90;99.90;;;;;;4974765;28;20193;-77
2022/02/20 04:37:08;;;;;;;22.08;3.67;;;8.80;99.90;;;;;;4958337;28;20173;-78
2022/02/20 04:39:33;;;;;;;18.83;3.70;;;8.80;99.90;;;;;;4975386;28;20162;-77
2022/02/20 04:41:59;;;;;;;18.27;3.38;;;8.90;99.90;;;;;;4975438;28;20172;-77
2022/02/20 04:44:25;;;;;;;15.43;3.72;;;9.00;99.90;;;;;;4974023;28;20217;-79
2022/02/20 04:46:50;;;;;;;24.00;3.45;;;9.10;99.90;;;;;;4975033;28;20288;-76
2022/02/20 04:49:16;;;;;;;20.35;3.08;;;9.20;99.90;;;;;;4975755;28;20173;-80
2022/02/20 04:51:42;;;;;;;24.13;3.30;;;9.20;99.90;;;;;;4975160;28;20237;-77
2022/02/20 04:54:07;;;;;;;19.63;3.35;;;9.20;99.90;;;;;;4974958;28;20192;-77
2022/02/20 04:56:33;;;;;;;16.77;4.05;;;9.20;99.90;;;;;;4976228;28;20173;-76
2022/02/20 04:58:59;;;;;;;23.63;3.30;;;9.20;99.90;;;;;;4977983;28;20195;-76
2022/02/20 05:01:25;;;;;;;22.52;3.13;;;9.30;99.90;;;;;;4992971;28;20162;-75
2022/02/20 05:03:53;;;;;;;23.00;4.10;;;9.30;99.90;;;;;;4988775;28;20701;-85
2022/02/20 05:06:19;;;;;;;20.23;3.03;;;9.30;99.90;;;;;;4975191;28;20209;-78
2022/02/20 05:08:45;;;;;;;26.27;2.88;;;9.40;99.90;;;;;;4974986;28;20246;-80
2022/02/20 05:11:11;;;;;;;22.13;2.40;;;9.30;99.90;;;;;;4974949;28;20170;-79
2022/02/20 05:13:37;;;;;;;16.33;3.95;;;9.40;99.90;;;;;;4974616;28;20193;-79
2022/02/20 05:16:03;;;;;;;25.88;3.83;;;9.40;99.90;;;;;;4975158;28;20579;-77
2022/02/20 05:18:29;;;;;;;23.10;4.35;;;9.30;99.90;;;;;;4979536;28;20146;-78
2022/02/20 05:20:56;;;;;;;16.67;3.40;;;9.30;99.90;;;;;;4979782;28;20202;-78
2022/02/20 05:23:23;;;;;;;15.88;3.30;;;9.30;99.90;;;;;;4967140;28;20162;-77
2022/02/20 05:25:50;;;;;;;14.60;3.83;;;9.30;99.90;;;;;;4981749;28;20201;-77
2022/02/20 05:28:15;;;;;;;17.73;3.05;;;9.30;99.90;;;;;;4974748;28;20170;-77
2022/02/20 05:30:41;;;;;;;19.48;3.25;;;9.30;99.90;;;;;;4974207;28;20709;-77
2022/02/20 05:33:07;;;;;;;13.82;3.30;;;9.30;99.90;;;;;;4974155;28;20177;-77
2022/02/20 05:35:32;;;;;;;20.05;2.70;;;9.30;99.90;;;;;;4974733;28;20170;-77
2022/02/20 05:37:58;;;;;;;15.50;2.95;;;9.30;99.90;;;;;;4974914;28;20578;-86
2022/02/20 05:40:24;;;;;;;18.48;2.67;;;9.20;99.90;;;;;;4957459;28;20174;-83
2022/02/20 05:42:52;;;;;;;15.23;3.05;;;9.30;99.90;;;;;;4974876;28;20181;-80
2022/02/20 05:45:19;;;;;;;13.20;2.50;;;9.20;99.90;;;;;;4973265;28;20265;-76
2022/02/20 05:47:45;;;;;;;18.90;2.55;;;9.30;99.90;;;;;;4975020;28;20189;-76
2022/02/20 05:50:12;;;;;;;14.32;3.33;;;9.30;99.90;;;;;;4957394;28;20642;-86
2022/02/20 05:52:38;;;;;;;13.90;3.28;;;9.40;99.90;;;;;;4974733;28;20173;-77
2022/02/20 05:55:05;;;;;;;16.70;2.75;;;9.40;99.90;;;;;;4974907;28;20244;-78
2022/02/20 05:57:50;;;;;;;15.95;2.85;;;9.40;99.90;;;;;;4974966;28;20174;-85
2022/02/20 06:00:19;;;;;;;15.63;4.13;;;9.40;99.90;;;;;;4974281;28;20162;-82
2022/02/20 06:02:45;;;;;;;8.00;3.03;;;9.50;99.90;;;;;;4957473;28;20242;-77
2022/02/20 06:05:12;;;;;;;14.63;3.22;;;9.50;99.90;;;;;;4974639;28;20289;-76
2022/02/20 06:07:38;;;;;;;13.77;2.55;;;9.50;99.90;;;;;;4974569;28;20197;-76
2022/02/20 06:10:05;;;;;;;14.32;2.00;;;9.50;99.90;;;;;;4974652;28;20525;-77
2022/02/20 06:12:32;;;;;;;18.80;2.80;;;9.60;99.90;;;;;;4974484;28;20264;-77
2022/02/20 06:14:58;;;;;;;11.13;2.72;;;9.60;99.90;;;;;;4973721;28;20257;-76
2022/02/20 06:17:23;;;;;;;18.75;2.50;;;9.50;99.90;;;;;;4974129;28;20587;-78
2022/02/20 06:19:49;;;;;;;13.90;2.13;;;9.50;99.90;;;;;;4974809;28;20201;-77
2022/02/20 06:22:15;;;;;;;16.83;3.85;;;9.50;99.90;;;;;;4978309;28;20166;-78
2022/02/20 06:24:41;;;;;;;11.50;2.25;;;9.50;99.90;;;;;;4973955;28;20268;-76
2022/02/20 06:27:06;;;;;;;14.65;2.47;;;9.60;99.90;;;;;;4956194;28;20216;-80
2022/02/20 06:29:32;;;;;;;12.55;2.28;;;9.60;99.90;;;;;;4973332;28;20758;-77
2022/02/20 06:31:59;;;;;;;11.68;3.35;;;9.60;99.90;;;;;;4973574;28;20638;-77
2022/02/20 06:34:24;;;;;;;17.48;2.35;;;9.70;99.90;;;;;;4973325;28;20182;-77
2022/02/20 06:36:50;;;;;;;9.02;2.35;;;9.70;99.90;;;;;;4973430;28;20170;-87
2022/02/20 06:39:16;;;;;;;10.82;2.97;;;9.60;99.90;;;;;;4973134;28;20170;-76
2022/02/20 06:41:42;;;;;;;18.60;4.03;;;9.60;99.90;;;;;;4973153;28;20169;-77
2022/02/20 06:44:08;;;;;;;12.43;2.45;;;9.60;99.90;;;;;;4973689;28;20206;-78
2022/02/20 06:46:33;;;;;;;15.20;3.15;;;9.60;99.90;;;;;;4973164;28;20205;-76
2022/02/20 06:48:59;;;;;;;13.88;2.80;;;9.50;99.90;;;;;;4973480;28;20310;-87
2022/02/20 06:51:26;;;;;;;15.73;2.55;;;9.50;99.90;;;;;;4973889;28;20166;-76
2022/02/20 06:53:51;;;;;;;10.93;2.20;;;9.50;99.90;;;;;;4985345;28;20197;-77
2022/02/20 06:56:17;;;;;;;19.33;3.47;;;9.50;99.90;;;;;;4995011;28;20197;-77
2022/02/20 06:58:43;;;;;;;10.75;3.10;;;9.50;99.90;;;;;;4977654;28;20173;-77
2022/02/20 07:01:09;;;;;;;22.73;3.65;;;9.40;99.90;;;;;;4976842;28;20173;-77
2022/02/20 07:03:34;;;;;;;18.63;4.22;;;9.40;99.90;;;;;;4976531;28;20218;-76
2022/02/20 07:06:00;;;;;;;7.90;3.17;;;9.40;99.90;;;;;;4976752;28;20209;-78
2022/02/20 07:08:26;;;;;;;13.85;2.45;;;9.40;99.90;;;;;;4959628;28;20819;-87
2022/02/20 07:10:51;;;;;;;14.30;2.92;;;9.50;99.90;;;;;;4975479;28;20260;-77
2022/02/20 07:13:17;;;;;;;5.70;2.40;;;9.50;99.90;;;;;;4975008;28;20188;-78
2022/02/20 07:15:42;;;;;;;7.43;2.25;;;9.50;99.90;;;;;;4975837;28;20262;-83
2022/02/20 07:18:08;;;;;;;15.63;2.83;;;9.50;99.90;;;;;;4976622;28;20623;-79
2022/02/20 07:20:34;;;;;;;24.25;2.85;;;9.60;99.90;;;;;;4975617;28;20178;-77
2022/02/20 07:23:02;;;;;;;18.15;2.60;;;9.50;99.90;;;;;;4976672;28;20173;-78
2022/02/20 07:25:27;;;;;;;12.38;2.28;;;9.50;99.90;;;;;;4976307;28;20313;-76
2022/02/20 07:27:56;;;;;;;7.95;2.38;;;9.50;99.90;;;;;;4976359;28;20266;-77
2022/02/20 07:30:23;;;;;;;8.65;2.00;;;9.50;99.90;;;;;;4975965;28;20224;-76
2022/02/20 07:32:48;;;;;;;7.35;2.13;;;9.60;99.90;;;;;;4976305;28;20166;-82
2022/02/20 07:35:14;;;;;;;17.23;3.85;;;9.50;99.90;;;;;;4975787;28;20268;-77
2022/02/20 07:37:40;;;;;;;11.88;2.00;;;9.50;99.90;;;;;;4976180;28;20158;-77
2022/02/20 07:40:11;;;;;;;10.80;2.50;;;9.60;99.90;;;;;;4976222;28;20197;-83
2022/02/20 07:42:37;;;;;;;11.15;2.58;;;9.60;99.90;;;;;;4976699;28;20224;-76
2022/02/20 07:45:03;;;;;;;7.03;1.90;;;9.60;99.90;;;;;;4975973;28;20545;-78
2022/02/20 07:47:29;;;;;;;10.95;2.75;;;9.70;99.90;;;;;;4976162;28;20178;-83
2022/02/20 07:49:55;;;;;;;8.27;1.88;;;9.70;99.90;;;;;;4958328;28;20173;-76
2022/02/20 07:52:21;;;;;;;9.73;1.92;;;9.70;99.90;;;;;;4976239;28;20178;-77
2022/02/20 07:54:46;;;;;;;16.20;3.28;;;9.70;99.90;;;;;;4975769;28;20189;-76
2022/02/20 07:57:12;;;;;;;12.55;2.63;;;9.70;99.90;;;;;;4975918;28;20174;-76
2022/02/20 07:59:38;;;;;;;14.13;2.03;;;9.70;99.90;;;;;;4975525;28;20185;-77
2022/02/20 08:02:04;;;;;;;10.20;2.20;;;9.70;99.90;;;;;;4958520;28;20174;-77
2022/02/20 08:04:30;;;;;;;4.70;2.17;;;9.70;99.90;;;;;;4975544;28;20673;-77
2022/02/20 08:06:55;;;;;;;5.65;1.95;;;9.70;99.90;;;;;;4975584;28;20210;-76
2022/02/20 08:09:21;;;;;;;8.65;1.80;;;9.70;99.90;;;;;;4974249;28;20166;-77
2022/02/20 08:11:47;;;;;;;9.60;2.95;;;9.70;99.90;;;;;;4974955;28;20213;-77
2022/02/20 08:14:12;;;;;;;8.10;1.75;;;9.70;99.90;;;;;;4974721;28;20205;-78
2022/02/20 08:16:38;;;;;;;9.75;2.33;;;9.70;99.90;;;;;;4974893;28;20173;-77
2022/02/20 08:19:03;;;;;;;12.95;2.72;;;9.80;99.90;;;;;;4974668;28;20180;-77
2022/02/20 08:21:29;;;;;;;3.90;2.00;;;9.80;99.90;;;;;;4974938;28;20908;-77
2022/02/20 08:23:55;;;;;;;7.82;1.52;;;9.80;99.90;;;;;;4974630;28;20240;-77
2022/02/20 08:26:22;;;;;;;4.60;1.50;;;9.80;99.90;;;;;;4974552;28;20209;-77
2022/02/20 08:28:48;;;;;;;5.90;1.45;;;9.70;99.90;;;;;;4975071;28;20198;-85
2022/02/20 08:31:13;;;;;;;5.93;1.58;;;9.80;99.90;;;;;;4957628;28;20220;-82
2022/02/20 08:33:40;;;;;;;13.00;1.95;;;9.80;99.90;;;;;;4975302;28;20244;-77
2022/02/20 08:36:06;;;;;;;16.75;2.70;;;9.80;99.90;;;;;;4975352;28;20177;-89
2022/02/20 08:38:32;;;;;;;6.68;1.60;;;9.90;99.90;;;;;;4958540;28;20176;-77
2022/02/20 08:40:57;;;;;;;5.40;1.75;;;10.00;99.90;;;;;;4974980;28;20305;-80
2022/02/20 08:43:23;;;;;;;15.43;2.03;;;10.00;99.90;;;;;;4974783;28;20189;-77
2022/02/20 08:45:48;;;;;;;7.95;2.03;;;10.10;99.90;;;;;;4974594;28;20558;-77
2022/02/20 08:48:15;;;;;;;4.97;2.15;;;10.10;99.90;;;;;;4974640;28;20170;-78
2022/02/20 08:50:42;;;;;;;8.55;2.13;;;10.10;99.90;;;;;;4974702;28;20166;-78
2022/02/20 08:53:08;;;;;;;8.43;2.22;;;10.10;99.90;;;;;;4974618;28;20237;-77
2022/02/20 08:55:34;;;;;;;10.80;3.42;;;10.30;99.90;;;;;;4974905;28;20520;-78
2022/02/20 08:58:03;;;;;;;14.27;2.58;;;10.30;99.90;;;;;;4974866;28;20165;-80
2022/02/20 09:00:29;;;;;;;10.63;2.17;;;10.30;99.90;;;;;;4958419;28;20534;-80
2022/02/20 09:02:55;;;;;;;16.65;2.13;;;10.40;99.90;;;;;;4957556;28;20283;-77
2022/02/20 09:05:20;;;;;;;12.23;2.10;;;10.40;99.90;;;;;;4973822;28;20209;-79
2022/02/20 09:07:46;;;;;;;8.80;2.17;;;10.30;99.90;;;;;;4975022;28;20181;-78
2022/02/20 09:10:12;;;;;;;7.95;2.63;;;10.30;99.90;;;;;;4978184;28;20184;-78
2022/02/20 09:12:39;;;;;;;9.15;1.83;;;10.30;99.90;;;;;;4975768;28;20193;-77
2022/02/20 09:15:06;;;;;;;13.70;2.42;;;10.30;99.90;;;;;;4974267;28;20201;-83
2022/02/20 09:17:32;;;;;;;6.82;1.25;;;10.30;99.90;;;;;;4973212;28;20174;-77
2022/02/20 09:19:59;;;;;;;9.52;1.70;;;10.20;99.90;;;;;;4974088;28;20169;-78
2022/02/20 09:22:24;;;;;;;10.35;2.40;;;10.30;99.90;;;;;;4974416;28;20165;-77
2022/02/20 09:24:50;;;;;;;10.57;1.95;;;10.20;99.90;;;;;;4974053;28;20201;-78
2022/02/20 09:27:16;;;;;;;7.13;1.40;;;10.20;99.90;;;;;;4974105;28;20216;-81
2022/02/20 09:29:41;;;;;;;9.80;1.95;;;10.30;99.90;;;;;;4973737;28;20557;-77
2022/02/20 09:32:07;;;;;;;10.20;1.90;;;10.30;99.90;;;;;;4973792;28;20178;-76
2022/02/20 09:34:33;;;;;;;17.25;2.00;;;10.30;99.90;;;;;;4973879;28;20549;-77
2022/02/20 09:36:59;;;;;;;15.88;3.00;;;10.30;99.90;;;;;;4973846;28;20525;-76
2022/02/20 09:39:24;;;;;;;14.23;2.03;;;10.40;99.90;;;;;;4974220;28;20177;-76
2022/02/20 09:41:50;;;;;;;9.68;2.05;;;10.50;99.90;;;;;;4974113;28;20240;-77
2022/02/20 09:44:15;;;;;;;17.02;3.08;;;10.50;99.90;;;;;;4973758;28;20186;-76
2022/02/20 09:46:42;;;;;;;14.70;2.28;;;10.50;99.90;;;;;;4973639;28;20209;-76
2022/02/20 09:49:08;;;;;;;10.18;2.63;;;10.60;99.90;;;;;;4973883;28;20213;-75
2022/02/20 09:51:35;;;;;;;13.93;2.28;;;10.60;99.90;;;;;;4973714;28;20208;-76
2022/02/20 09:54:01;;;;;;;18.30;3.08;;;10.60;99.90;;;;;;4973578;28;20200;-76
2022/02/20 09:56:26;;;;;;;13.95;2.15;;;10.80;99.90;;;;;;4973751;28;20531;-76
2022/02/20 09:58:53;;;;;;;12.05;2.60;;;10.80;99.90;;;;;;4956638;28;20174;-79
2022/02/20 10:01:19;;;;;;;11.75;2.83;;;10.90;99.90;;;;;;4973784;28;20166;-77
2022/02/20 10:03:46;;;;;;;10.05;2.30;;;11.00;99.90;;;;;;4973279;28;20182;-77
2022/02/20 10:06:18;;;;;;;12.20;2.40;;;11.00;99.90;;;;;;4973458;28;20220;-76
2022/02/20 10:08:49;;;;;;;14.20;2.45;;;11.00;99.90;;;;;;4973601;28;20177;-78
2022/02/20 10:11:25;;;;;;;16.77;2.97;;;11.00;99.90;;;;;;4973591;28;20166;-77
2022/02/20 10:13:52;;;;;;;14.48;2.60;;;11.00;99.90;;;;;;4973549;28;20275;-80
2022/02/20 10:16:20;;;;;;;22.45;2.75;;;11.00;99.90;;;;;;4956236;28;20257;-77
2022/02/20 10:18:46;;;;;;;18.63;2.28;;;11.00;99.90;;;;;;4973510;28;20169;-77
2022/02/20 10:21:27;;;;;;;19.75;3.78;;;11.00;99.90;;;;;;4956389;28;20221;-77
2022/02/20 10:23:54;;;;;;;22.30;2.60;;;11.10;99.90;;;;;;4973454;28;20194;-77
2022/02/20 10:26:23;;;;;;;16.10;2.95;;;11.10;99.90;;;;;;4973334;28;20284;-77
2022/02/20 10:29:10;;;;;;;15.02;2.53;;;11.20;99.90;;;;;;4973724;28;20674;-79
2022/02/20 10:31:44;;;;;;;13.55;4.20;;;11.20;99.90;;;;;;4973891;28;20308;-77
2022/02/20 10:34:13;;;;;;;13.52;3.45;;;11.20;99.90;;;;;;4977480;28;20186;-77
2022/02/20 10:36:48;;;;;;;20.65;3.38;;;11.20;99.90;;;;;;4962055;28;20181;-78
2022/02/20 10:39:40;;;;;;;10.43;2.88;;;11.20;99.90;;;;;;4986073;28;20169;-78
2022/02/20 10:42:19;;;;;;;16.17;3.38;;;11.10;99.90;;;;;;4980278;28;20254;-76
2022/02/20 10:44:56;;;;;;;14.35;2.83;;;11.20;99.90;;;;;;4964461;28;20260;-76
2022/02/20 10:47:23;;;;;;;21.70;3.60;;;11.20;99.90;;;;;;4961442;28;20540;-87
2022/02/20 10:49:49;;;;;;;15.02;3.15;;;11.30;99.90;;;;;;4978038;28;20194;-87
2022/02/20 10:52:22;;;;;;;22.60;4.50;;;11.40;99.90;;;;;;4977074;28;20646;-77
2022/02/20 10:55:03;;;;;;;20.67;4.95;;;11.40;99.90;;;;;;4976759;28;20194;-77
2022/02/20 10:57:45;;;;;;;19.80;4.78;;;11.30;99.90;;;;;;4976664;28;20170;-77
2022/02/20 11:00:19;;;;;;;28.13;4.45;;;11.30;99.90;;;;;;4959276;28;20173;-77
2022/02/20 11:02:45;;;;;;;17.83;3.60;;;11.20;99.90;;;;;;4976367;28;20173;-77
2022/02/20 11:05:12;;;;;;;9.88;3.08;;;11.20;99.90;;;;;;4976443;28;20236;-78
2022/02/20 11:07:39;;;;;;;17.20;3.00;;;11.30;99.90;;;;;;4977031;28;20205;-78
2022/02/20 11:10:10;;;;;;;28.35;4.75;;;11.30;99.90;;;;;;4976691;28;20657;-79
2022/02/20 11:12:37;;;;;;;16.60;4.20;;;11.20;99.90;;;;;;4974987;28;20581;-77
2022/02/20 11:15:05;;;;;;;25.40;4.82;;;11.20;99.90;;;;;;4976257;28;20212;-77
2022/02/20 11:17:33;;;;;;;24.58;4.43;;;11.20;99.90;;;;;;4976062;28;20166;-77
2022/02/20 11:20:00;;;;;;;25.02;3.63;;;11.30;99.90;;;;;;4976215;28;20332;-85
2022/02/20 11:22:30;;;;;;;24.23;4.63;;;11.30;99.90;;;;;;4976118;28;20245;-81
2022/02/20 11:24:58;;;;;;;20.13;3.15;;;11.30;99.90;;;;;;4976341;28;20190;-78
2022/02/20 11:27:24;;;;;;;26.98;3.72;;;11.30;99.90;;;;;;4976356;28;20210;-79
2022/02/20 11:29:50;;;;;;;20.77;3.90;;;11.30;99.90;;;;;;4975807;28;20651;-78
2022/02/20 11:32:17;;;;;;;18.13;3.75;;;11.40;99.90;;;;;;4977376;28;20181;-78
2022/02/20 11:34:45;;;;;;;19.10;4.90;;;11.50;99.90;;;;;;4983793;28;20190;-78
2022/02/20 11:37:12;;;;;;;20.55;3.47;;;11.50;99.90;;;;;;4987944;28;20229;-79
2022/02/20 11:40:03;;;;;;;24.80;4.18;;;11.40;99.90;;;;;;4958653;28;20627;-79
2022/02/20 11:42:29;;;;;;;29.00;5.63;;;11.40;99.90;;;;;;4958837;28;20269;-78
2022/02/20 11:45:08;;;;;;;19.80;3.40;;;11.40;99.90;;;;;;4976319;28;20197;-77
2022/02/20 11:47:34;;;;;;;22.88;6.72;;;11.30;99.90;;;;;;4976159;28;20276;-77
2022/02/20 11:50:15;;;;;;;21.90;3.83;;;11.40;99.90;;;;;;4975785;28;20241;-77
2022/02/20 11:52:49;;;;;;;26.65;4.00;;;11.30;99.90;;;;;;4959367;28;20635;-76
2022/02/20 11:55:41;;;;;;;27.73;4.60;;;11.30;99.90;;;;;;4975570;28;20197;-79
2022/02/20 11:58:22;;;;;;;13.00;3.35;;;11.40;99.90;;;;;;4975850;28;20236;-80
2022/02/20 12:00:57;;;;;;;17.63;3.58;;;11.30;99.90;;;;;;4975431;28;20170;-77
2022/02/20 12:03:26;;;;;;;23.58;4.30;;;11.40;99.90;;;;;;4975551;28;20256;-78
2022/02/20 12:06:19;;;;;;;33.55;4.45;;;11.40;99.90;;;;;;4975367;28;20535;-77
2022/02/20 12:08:46;;;;;;;20.40;5.00;;;11.40;99.90;;;;;;4975370;28;20174;-82
2022/02/20 12:11:20;;;;;;;22.30;3.70;;;11.50;99.90;;;;;;4975569;28;20312;-77
2022/02/20 12:13:47;;;;;;;16.98;3.97;;;11.50;99.90;;;;;;4975377;28;20197;-77
2022/02/20 12:16:37;;;;;;;27.38;3.83;;;11.50;99.90;;;;;;4975215;28;20305;-77
2022/02/20 12:19:44;;;;;;;26.77;4.93;;;11.50;99.90;;;;;;4974075;28;20174;-77
2022/02/20 12:22:26;;;;;;;27.40;4.50;;;11.50;99.90;;;;;;4953288;28;20245;-77
2022/02/20 12:24:56;;;;;;;27.48;4.15;;;11.50;99.90;;;;;;4975273;28;20206;-79
2022/02/20 12:27:27;;;;;;;19.80;2.97;;;11.50;99.90;;;;;;4957564;28;20271;-77
2022/02/20 12:29:57;;;;;;;25.38;4.05;;;11.50;99.90;;;;;;4957038;28;20215;-77
2022/02/20 12:32:30;;;;;;;22.70;3.80;;;11.60;99.90;;;;;;4974772;28;20197;-77
2022/02/20 12:35:01;;;;;;;19.83;3.92;;;11.60;99.90;;;;;;4975091;28;20194;-81
2022/02/20 12:37:30;;;;;;;13.60;3.80;;;11.70;99.90;;;;;;4974887;28;20698;-78
2022/02/20 12:40:08;;;;;;;21.02;3.40;;;11.70;99.90;;;;;;4974852;28;20256;-80
2022/02/20 12:42:46;;;;;;;29.27;3.92;;;11.70;99.90;;;;;;4974697;28;20549;-77
2022/02/20 12:45:13;;;;;;;19.30;3.17;;;11.80;99.90;;;;;;4957182;28;20194;-77
2022/02/20 12:47:40;;;;;;;18.45;3.45;;;11.80;99.90;;;;;;4957241;28;20201;-77